DAHMK LFBO-EDHI
Flight info
| Callsign | DAHMK |
|---|---|
| Flight time | N/A |
| Altitude | 34000 |
| Route | FISTO7A/14R FISTO DCT PERIG DCT ADABI DCT BOKNO UN858 VANAD UN874 BAMES UT191 PODEM UN873 BAZOS DCT BELDI/N0461F330 DCT VICOT DCT PABCO M105 RIBSO |
| Aircraft | A306/H-SDE3FGHIRWY/LB1 |
Departure
| Time | N/A |
|---|---|
| Airport | Toulouse-Blagnac Airport (LFBO) |
Arrival
| Time | 2026-05-08 16:12 |
|---|---|
| Airport | Hamburg-Finkenwerder Airport (EDHI) |
| Time | Latitude | Longitude | Altitude | Speed | Heading |
|---|---|---|---|---|---|
| 2026-05-08 15:37 | 51.79438 | 4.61249 | 25000 ft | 460 kts | 48° |
| 2026-05-08 15:38 | 51.81544 | 4.65080 | 25000 ft | 460 kts | 49° |
| 2026-05-08 15:38 | 51.83675 | 4.68960 | 25000 ft | 460 kts | 49° |
| 2026-05-08 15:38 | 51.85795 | 4.72827 | 25000 ft | 460 kts | 49° |
| 2026-05-08 15:38 | 51.87912 | 4.76694 | 25000 ft | 460 kts | 49° |
| 2026-05-08 15:39 | 51.90036 | 4.80580 | 25000 ft | 460 kts | 49° |
| 2026-05-08 15:39 | 51.92131 | 4.84420 | 25000 ft | 460 kts | 49° |
| 2026-05-08 15:39 | 51.94239 | 4.88288 | 25000 ft | 460 kts | 49° |
| 2026-05-08 15:39 | 51.96352 | 4.92170 | 25000 ft | 460 kts | 49° |
| 2026-05-08 15:40 | 51.98473 | 4.96075 | 25000 ft | 460 kts | 49° |
| 2026-05-08 15:40 | 52.00594 | 4.99986 | 25000 ft | 460 kts | 49° |
| 2026-05-08 15:40 | 52.02682 | 5.03842 | 25000 ft | 460 kts | 49° |
| 2026-05-08 15:40 | 52.04810 | 5.07777 | 25000 ft | 460 kts | 49° |
| 2026-05-08 15:41 | 52.06903 | 5.11655 | 25000 ft | 460 kts | 49° |
| 2026-05-08 15:41 | 52.09013 | 5.15569 | 25000 ft | 460 kts | 49° |
| 2026-05-08 15:41 | 52.11103 | 5.19452 | 25000 ft | 460 kts | 49° |
| 2026-05-08 15:41 | 52.13211 | 5.23375 | 25000 ft | 460 kts | 49° |
| 2026-05-08 15:42 | 52.15315 | 5.27297 | 25000 ft | 460 kts | 49° |
| 2026-05-08 15:42 | 52.17421 | 5.31229 | 25000 ft | 460 kts | 49° |
| 2026-05-08 15:42 | 52.19506 | 5.35126 | 25000 ft | 460 kts | 49° |
| 2026-05-08 15:42 | 52.21591 | 5.39031 | 25000 ft | 460 kts | 49° |
| 2026-05-08 15:43 | 52.23699 | 5.42985 | 25006 ft | 460 kts | 49° |
| 2026-05-08 15:43 | 52.25785 | 5.46905 | 24996 ft | 460 kts | 49° |
| 2026-05-08 15:43 | 52.27882 | 5.50850 | 24998 ft | 460 kts | 49° |
| 2026-05-08 15:43 | 52.29978 | 5.54799 | 24999 ft | 460 kts | 49° |
| 2026-05-08 15:44 | 52.32067 | 5.58742 | 24999 ft | 460 kts | 49° |
| 2026-05-08 15:44 | 52.34168 | 5.62713 | 24999 ft | 460 kts | 49° |
| 2026-05-08 15:44 | 52.36242 | 5.66640 | 25000 ft | 460 kts | 49° |
| 2026-05-08 15:44 | 52.38341 | 5.70621 | 25000 ft | 460 kts | 49° |
| 2026-05-08 15:45 | 52.40432 | 5.74592 | 25000 ft | 460 kts | 49° |
| 2026-05-08 15:45 | 52.42527 | 5.78578 | 25000 ft | 460 kts | 49° |
| 2026-05-08 15:45 | 52.44591 | 5.82510 | 25000 ft | 460 kts | 49° |
| 2026-05-08 15:45 | 52.46685 | 5.86506 | 25000 ft | 460 kts | 49° |
| 2026-05-08 15:46 | 52.48772 | 5.90495 | 25000 ft | 460 kts | 49° |
| 2026-05-08 15:46 | 52.50845 | 5.94463 | 25000 ft | 460 kts | 49° |
| 2026-05-08 15:46 | 52.52906 | 5.98416 | 25000 ft | 460 kts | 49° |
| 2026-05-08 15:46 | 52.54997 | 6.02430 | 25000 ft | 460 kts | 49° |
| 2026-05-08 15:47 | 52.57064 | 6.06407 | 25000 ft | 460 kts | 49° |
| 2026-05-08 15:47 | 52.59157 | 6.10439 | 25000 ft | 460 kts | 49° |
| 2026-05-08 15:47 | 52.61206 | 6.14395 | 25000 ft | 460 kts | 49° |
| 2026-05-08 15:47 | 52.63284 | 6.18409 | 25000 ft | 460 kts | 49° |
| 2026-05-08 15:48 | 52.67421 | 6.26425 | 25000 ft | 460 kts | 49° |
| 2026-05-08 15:48 | 52.69498 | 6.30459 | 25000 ft | 460 kts | 49° |
| 2026-05-08 15:48 | 52.71558 | 6.34466 | 25000 ft | 460 kts | 49° |
| 2026-05-08 15:49 | 52.73625 | 6.38492 | 25000 ft | 460 kts | 49° |
| 2026-05-08 15:49 | 52.75707 | 6.42555 | 25001 ft | 460 kts | 49° |
| 2026-05-08 15:49 | 52.77767 | 6.46582 | 25002 ft | 460 kts | 49° |
| 2026-05-08 15:49 | 52.79830 | 6.50621 | 24997 ft | 460 kts | 49° |
| 2026-05-08 15:50 | 52.81873 | 6.54627 | 24998 ft | 460 kts | 49° |
| 2026-05-08 15:50 | 52.83953 | 6.58712 | 24999 ft | 460 kts | 49° |
| 2026-05-08 15:50 | 52.86005 | 6.62749 | 25000 ft | 460 kts | 49° |
| 2026-05-08 15:50 | 52.88069 | 6.66815 | 25000 ft | 460 kts | 50° |
| 2026-05-08 15:51 | 52.90132 | 6.70887 | 25000 ft | 460 kts | 50° |
| 2026-05-08 15:51 | 52.92160 | 6.74897 | 25000 ft | 460 kts | 50° |
| 2026-05-08 15:51 | 52.94226 | 6.78987 | 25000 ft | 460 kts | 50° |
| 2026-05-08 15:51 | 52.96279 | 6.83059 | 25000 ft | 460 kts | 50° |
| 2026-05-08 15:52 | 52.98335 | 6.87143 | 25000 ft | 460 kts | 50° |
| 2026-05-08 15:52 | 53.00385 | 6.91223 | 25000 ft | 460 kts | 50° |
| 2026-05-08 15:52 | 53.02434 | 6.95305 | 25000 ft | 460 kts | 50° |
| 2026-05-08 15:52 | 53.04469 | 6.99367 | 25000 ft | 460 kts | 50° |
| 2026-05-08 15:53 | 53.06521 | 7.03470 | 25000 ft | 460 kts | 50° |
| 2026-05-08 15:53 | 53.08561 | 7.07556 | 25000 ft | 460 kts | 50° |
| 2026-05-08 15:53 | 53.10589 | 7.11624 | 24999 ft | 460 kts | 50° |
| 2026-05-08 15:53 | 53.12625 | 7.15721 | 24999 ft | 460 kts | 51° |
| 2026-05-08 15:54 | 53.14258 | 7.20310 | 24997 ft | 458 kts | 67° |
| 2026-05-08 15:54 | 53.15269 | 7.25334 | 25007 ft | 460 kts | 74° |
| 2026-05-08 15:54 | 53.16116 | 7.30515 | 25003 ft | 461 kts | 74° |
| 2026-05-08 15:54 | 53.16996 | 7.35651 | 25000 ft | 461 kts | 73° |
| 2026-05-08 15:55 | 53.17939 | 7.40720 | 24999 ft | 460 kts | 72° |
| 2026-05-08 15:55 | 53.19928 | 7.50858 | 24999 ft | 460 kts | 71° |
| 2026-05-08 15:55 | 53.20916 | 7.55897 | 24999 ft | 460 kts | 71° |
| 2026-05-08 15:56 | 53.21903 | 7.60992 | 24999 ft | 460 kts | 71° |
| 2026-05-08 15:56 | 53.22877 | 7.66073 | 24999 ft | 460 kts | 72° |
| 2026-05-08 15:56 | 53.23856 | 7.71176 | 24999 ft | 460 kts | 72° |
| 2026-05-08 15:56 | 53.24827 | 7.76234 | 25000 ft | 460 kts | 72° |
| 2026-05-08 15:57 | 53.25801 | 7.81309 | 25000 ft | 460 kts | 72° |
| 2026-05-08 15:57 | 53.26775 | 7.86397 | 25000 ft | 460 kts | 72° |
| 2026-05-08 15:57 | 53.27746 | 7.91481 | 25000 ft | 460 kts | 72° |
| 2026-05-08 15:57 | 53.28724 | 7.96621 | 25000 ft | 460 kts | 72° |
| 2026-05-08 15:58 | 53.29685 | 8.01684 | 25000 ft | 460 kts | 72° |
| 2026-05-08 15:58 | 53.30654 | 8.06805 | 25000 ft | 460 kts | 72° |
| 2026-05-08 15:58 | 53.31463 | 8.11922 | 24944 ft | 455 kts | 79° |
| 2026-05-08 15:58 | 53.31852 | 8.17177 | 24405 ft | 452 kts | 85° |
| 2026-05-08 15:59 | 53.32064 | 8.22382 | 23764 ft | 452 kts | 86° |
| 2026-05-08 15:59 | 53.32288 | 8.27622 | 23201 ft | 449 kts | 85° |
| 2026-05-08 15:59 | 53.32562 | 8.32790 | 22601 ft | 442 kts | 84° |
| 2026-05-08 15:59 | 53.32866 | 8.37877 | 21970 ft | 435 kts | 84° |
| 2026-05-08 16:00 | 53.33175 | 8.42897 | 21344 ft | 432 kts | 84° |
| 2026-05-08 16:00 | 53.33472 | 8.47775 | 20419 ft | 425 kts | 84° |
| 2026-05-08 16:00 | 53.33758 | 8.52584 | 19919 ft | 405 kts | 84° |
| 2026-05-08 16:00 | 53.34030 | 8.57209 | 19269 ft | 394 kts | 84° |
| 2026-05-08 16:01 | 53.34293 | 8.61723 | 18540 ft | 385 kts | 84° |
| 2026-05-08 16:01 | 53.34547 | 8.66127 | 17812 ft | 377 kts | 85° |
| 2026-05-08 16:01 | 53.34795 | 8.70440 | 17085 ft | 370 kts | 85° |
| 2026-05-08 16:01 | 53.35035 | 8.74637 | 16363 ft | 363 kts | 85° |
| 2026-05-08 16:02 | 53.35272 | 8.78806 | 15755 ft | 352 kts | 85° |
| 2026-05-08 16:02 | 53.35495 | 8.82762 | 15599 ft | 329 kts | 85° |
| 2026-05-08 16:02 | 53.35706 | 8.86509 | 15080 ft | 323 kts | 85° |
| 2026-05-08 16:02 | 53.35912 | 8.90204 | 14611 ft | 313 kts | 85° |
| 2026-05-08 16:03 | 53.36111 | 8.93791 | 13953 ft | 311 kts | 85° |
| 2026-05-08 16:03 | 53.36308 | 8.97357 | 13306 ft | 309 kts | 85° |
| 2026-05-08 16:03 | 53.36505 | 9.00938 | 12652 ft | 307 kts | 85° |
| 2026-05-08 16:03 | 53.36698 | 9.04488 | 11998 ft | 304 kts | 85° |
| 2026-05-08 16:04 | 53.36890 | 9.08013 | 11344 ft | 302 kts | 85° |
| 2026-05-08 16:04 | 53.37077 | 9.11473 | 10697 ft | 300 kts | 85° |
| 2026-05-08 16:04 | 53.37262 | 9.14921 | 10049 ft | 298 kts | 85° |
| 2026-05-08 16:04 | 53.37445 | 9.18333 | 9402 ft | 296 kts | 85° |
| 2026-05-08 16:05 | 53.37626 | 9.21746 | 8751 ft | 293 kts | 85° |
| 2026-05-08 16:05 | 53.37805 | 9.25142 | 8115 ft | 290 kts | 85° |
| 2026-05-08 16:05 | 53.37978 | 9.28435 | 7692 ft | 280 kts | 85° |
| 2026-05-08 16:05 | 53.38146 | 9.31644 | 7257 ft | 271 kts | 85° |
| 2026-05-08 16:06 | 53.38306 | 9.34727 | 6827 ft | 263 kts | 85° |
| 2026-05-08 16:06 | 53.38462 | 9.37722 | 6399 ft | 256 kts | 85° |
| 2026-05-08 16:06 | 53.38614 | 9.40684 | 5969 ft | 252 kts | 85° |
| 2026-05-08 16:06 | 53.38765 | 9.43617 | 5539 ft | 250 kts | 85° |
| 2026-05-08 16:07 | 53.38911 | 9.46488 | 5116 ft | 248 kts | 85° |
| 2026-05-08 16:07 | 53.39057 | 9.49361 | 4689 ft | 246 kts | 85° |
| 2026-05-08 16:07 | 53.39273 | 9.52205 | 4257 ft | 245 kts | 72° |
| 2026-05-08 16:07 | 53.40024 | 9.54732 | 3866 ft | 244 kts | 56° |
| 2026-05-08 16:08 | 53.41000 | 9.57020 | 3441 ft | 242 kts | 52° |
| 2026-05-08 16:08 | 53.42038 | 9.59244 | 3028 ft | 243 kts | 51° |
| 2026-05-08 16:08 | 53.43072 | 9.61422 | 2837 ft | 235 kts | 51° |
| 2026-05-08 16:08 | 53.44102 | 9.63590 | 2814 ft | 238 kts | 51° |
| 2026-05-08 16:09 | 53.45147 | 9.65794 | 2477 ft | 238 kts | 52° |
| 2026-05-08 16:09 | 53.45805 | 9.67213 | 2253 ft | 223 kts | 52° |
| 2026-05-08 16:09 | 53.47008 | 9.69779 | 1889 ft | 197 kts | 52° |
| 2026-05-08 16:09 | 53.47813 | 9.71476 | 1657 ft | 178 kts | 51° |
| 2026-05-08 16:10 | 53.48548 | 9.73022 | 1425 ft | 158 kts | 51° |
| 2026-05-08 16:10 | 53.49212 | 9.74422 | 1180 ft | 150 kts | 51° |
| 2026-05-08 16:10 | 53.49852 | 9.75753 | 968 ft | 143 kts | 50° |
| 2026-05-08 16:10 | 53.50497 | 9.77046 | 869 ft | 145 kts | 51° |
| 2026-05-08 16:11 | 53.51114 | 9.78390 | 639 ft | 148 kts | 54° |
| 2026-05-08 16:11 | 53.51744 | 9.79775 | 394 ft | 148 kts | 51° |
| 2026-05-08 16:11 | 53.52381 | 9.81103 | 191 ft | 146 kts | 53° |
| 2026-05-08 16:11 | 53.53007 | 9.82434 | 21 ft | 144 kts | 51° |
| 2026-05-08 16:12 | 53.53497 | 9.83480 | 20 ft | 80 kts | 52° |
| 2026-05-08 16:12 | 53.53720 | 9.83950 | 25 ft | 26 kts | 52° |
| 2026-05-08 16:12 | 53.53764 | 9.84045 | 25 ft | 2 kts | 52° |
| 2026-05-08 16:12 | 53.53783 | 9.84085 | 24 ft | 16 kts | 52° |
| 2026-05-08 16:13 | 53.53927 | 9.84395 | 23 ft | 39 kts | 52° |
| 2026-05-08 16:13 | 53.54081 | 9.84731 | 20 ft | 20 kts | 59° |
| 2026-05-08 16:13 | 53.54131 | 9.84834 | 19 ft | 7 kts | 352° |
| 2026-05-08 16:13 | 53.54116 | 9.84787 | 19 ft | 3 kts | 218° |
| 2026-05-08 16:14 | 53.54081 | 9.84718 | 19 ft | 11 kts | 230° |
| 2026-05-08 16:14 | 53.54011 | 9.84575 | 21 ft | 19 kts | 231° |
| 2026-05-08 16:14 | 53.53915 | 9.84368 | 23 ft | 23 kts | 232° |
| 2026-05-08 16:14 | 53.53809 | 9.84139 | 23 ft | 24 kts | 232° |
| 2026-05-08 16:15 | 53.53702 | 9.83911 | 25 ft | 25 kts | 232° |
| 2026-05-08 16:15 | 53.53635 | 9.83766 | 25 ft | 1 kts | 232° |
| 2026-05-08 16:15 | 53.53615 | 9.83724 | 25 ft | 8 kts | 232° |
| 2026-05-08 16:15 | 53.53562 | 9.83610 | 23 ft | 17 kts | 232° |
| 2026-05-08 16:16 | 53.53468 | 9.83408 | 19 ft | 26 kts | 232° |
| 2026-05-08 16:16 | 53.53359 | 9.83154 | 16 ft | 24 kts | 256° |
| 2026-05-08 16:16 | 53.53437 | 9.82948 | 15 ft | 20 kts | 320° |
| 2026-05-08 16:16 | 53.53557 | 9.82791 | 13 ft | 22 kts | 323° |
| 2026-05-08 16:17 | 53.53668 | 9.82600 | 13 ft | 22 kts | 296° |
| 2026-05-08 16:17 | 53.53703 | 9.82437 | 13 ft | 22 kts | 287° |
| 2026-05-08 16:17 | 53.53762 | 9.82142 | 13 ft | 10 kts | 311° |
| 2026-05-08 16:17 | 53.53792 | 9.82115 | 13 ft | 5 kts | 346° |
| 2026-05-08 16:18 | 53.53824 | 9.82122 | 13 ft | 3 kts | 17° |
| 2026-05-08 16:18 | 53.53839 | 9.82129 | 13 ft | 0 kts | 15° |